createdAt,value
2022-12-14T00:01:08.546Z,-2.55
2022-12-14T00:06:13.154Z,-2.63
2022-12-14T00:11:17.572Z,-2.72
2022-12-14T00:16:21.185Z,-2.77
2022-12-14T00:21:24.724Z,-2.84
2022-12-14T00:26:30.959Z,-3.03
2022-12-14T00:31:34.645Z,-3.25
2022-12-14T00:36:37.946Z,-3.12
2022-12-14T00:41:42.343Z,-3.14
2022-12-14T00:46:45.250Z,-3.21
2022-12-14T00:51:48.022Z,-3.27
2022-12-14T00:56:52.200Z,-3.22
2022-12-14T01:01:55.036Z,-3.21
2022-12-14T01:06:58.002Z,-3.22
2022-12-14T01:12:02.177Z,-3.17
2022-12-14T01:17:05.113Z,-3.20
2022-12-14T01:22:08.037Z,-3.33
2022-12-14T01:27:12.628Z,-3.33
2022-12-14T01:32:15.502Z,-3.22
2022-12-14T01:37:18.307Z,-3.14
2022-12-14T01:42:22.540Z,-3.07
2022-12-14T01:47:29.648Z,-3.06
2022-12-14T01:52:36.532Z,-3.05
2022-12-14T01:57:43.001Z,-2.94
2022-12-14T02:02:50.589Z,-2.94
2022-12-14T02:07:55.937Z,-2.87
2022-12-14T02:13:04.474Z,-2.98
2022-12-14T02:18:10.736Z,-3.04
2022-12-14T02:23:42.151Z,-3.02
2022-12-14T02:29:16.453Z,-3.08
2022-12-14T02:34:24.983Z,-3.08
2022-12-14T02:39:34.866Z,-3.06
2022-12-14T02:44:43.004Z,-3.10
2022-12-14T02:49:53.753Z,-3.14
2022-12-14T02:54:59.927Z,-3.10
2022-12-14T03:00:06.400Z,-3.10
2022-12-14T03:05:10.177Z,-3.08
2022-12-14T03:10:20.366Z,-3.03
2022-12-14T03:15:26.081Z,-3.02
2022-12-14T03:20:30.363Z,-3.13
2022-12-14T03:25:36.824Z,-3.31
2022-12-14T03:31:00.566Z,-3.55
2022-12-14T03:36:09.184Z,-3.67
2022-12-14T03:41:18.274Z,-3.68
2022-12-14T03:46:32.987Z,-3.73
2022-12-14T03:51:41.772Z,-3.66
2022-12-14T03:56:52.951Z,-3.65
2022-12-14T04:02:02.876Z,-3.58
2022-12-14T04:07:13.097Z,-3.57
2022-12-14T04:12:34.906Z,-3.54
2022-12-14T04:17:57.449Z,-3.46
2022-12-14T04:23:04.627Z,-3.53
2022-12-14T04:28:32.122Z,-3.58
2022-12-14T04:33:48.980Z,-3.59
2022-12-14T04:38:55.745Z,-3.59
2022-12-14T04:44:01.895Z,-3.68
2022-12-14T04:49:19.405Z,-3.83
2022-12-14T04:54:25.341Z,-3.97
2022-12-14T04:59:28.496Z,-4.18
2022-12-14T05:04:54.840Z,-4.28
2022-12-14T05:10:00.730Z,-4.38
2022-12-14T05:15:06.823Z,-4.54
2022-12-14T05:20:16.529Z,-4.55
2022-12-14T05:25:19.363Z,-4.72
2022-12-14T05:30:22.295Z,-4.76
2022-12-14T05:35:26.674Z,-4.77
2022-12-14T05:40:29.425Z,-4.79
2022-12-14T05:45:32.282Z,-4.97
2022-12-14T05:50:36.637Z,-5.06
2022-12-14T05:55:39.528Z,-4.97
2022-12-14T06:00:42.480Z,-5.10
2022-12-14T06:05:47.397Z,-5.16
2022-12-14T06:10:51.106Z,-5.24
2022-12-14T06:15:54.019Z,-5.24
2022-12-14T06:20:58.802Z,-5.22
2022-12-14T06:26:01.755Z,-5.16
2022-12-14T06:31:05.872Z,-5.05
2022-12-14T06:36:17.595Z,-5.19
2022-12-14T06:41:21.258Z,-5.11
2022-12-14T06:46:25.196Z,-5.10
2022-12-14T06:51:29.461Z,-5.19
2022-12-14T06:56:32.261Z,-5.23
2022-12-14T07:01:35.675Z,-5.23
2022-12-14T07:06:41.599Z,-5.28
2022-12-14T07:11:44.449Z,-5.26
2022-12-14T07:16:48.597Z,-5.37
2022-12-14T07:21:53.296Z,-5.48
2022-12-14T07:26:56.662Z,-5.35
2022-12-14T07:31:59.883Z,-5.26
2022-12-14T07:37:04.285Z,-5.25
2022-12-14T07:42:07.211Z,-5.29
2022-12-14T07:47:13.829Z,-5.26
2022-12-14T07:52:20.733Z,-5.21
2022-12-14T07:57:23.539Z,-5.21
2022-12-14T08:02:26.501Z,-5.13
2022-12-14T08:07:31.564Z,-5.14
2022-12-14T08:12:34.436Z,-5.09
2022-12-14T08:17:37.276Z,-5.05
2022-12-14T08:22:41.618Z,-5.03
2022-12-14T08:27:44.486Z,-4.95
2022-12-14T08:32:47.378Z,-4.94
2022-12-14T08:37:54.635Z,-4.93
2022-12-14T08:42:57.397Z,-4.79
2022-12-14T08:48:01.627Z,-4.76
2022-12-14T08:53:05.913Z,-4.56
2022-12-14T08:58:08.779Z,-4.46
2022-12-14T09:03:12.347Z,-4.32
2022-12-14T09:08:16.576Z,-4.18
2022-12-14T09:13:19.372Z,-4.00
2022-12-14T09:18:22.164Z,-3.85
2022-12-14T09:23:28.788Z,-3.78
2022-12-14T09:28:32.558Z,-3.68
2022-12-14T09:33:58.251Z,-3.58
2022-12-14T09:39:02.833Z,-3.43
2022-12-14T09:44:17.733Z,-3.25
2022-12-14T09:49:27.354Z,-2.93
2022-12-14T09:54:34.166Z,-2.83
2022-12-14T09:59:37.061Z,-2.56
2022-12-14T10:04:48.010Z,-2.50
2022-12-14T10:09:58.099Z,-2.32
2022-12-14T10:15:08.888Z,-2.27
2022-12-14T10:20:17.951Z,-2.23
2022-12-14T10:25:25.414Z,-2.01
2022-12-14T10:30:28.621Z,-1.98
2022-12-14T10:35:34.995Z,-1.94
2022-12-14T10:40:43.632Z,-1.75
2022-12-14T10:45:58.022Z,-1.44
2022-12-14T10:51:03.293Z,-1.25
2022-12-14T10:56:12.706Z,-1.11
2022-12-14T11:01:16.650Z,-0.97
2022-12-14T11:06:20.834Z,-0.61
2022-12-14T11:11:26.308Z,0.08
2022-12-14T11:16:37.375Z,0.92
2022-12-14T11:21:40.500Z,1.00
2022-12-14T11:26:45.013Z,0.69
2022-12-14T11:31:49.348Z,0.63
2022-12-14T11:36:52.324Z,0.71
2022-12-14T11:42:03.788Z,0.65
2022-12-14T11:47:08.684Z,0.30
2022-12-14T11:52:13.005Z,0.27
2022-12-14T11:57:24.061Z,0.66
2022-12-14T12:02:30.421Z,0.62
2022-12-14T12:07:35.182Z,0.79
2022-12-14T12:12:39.948Z,2.00
2022-12-14T12:17:44.477Z,1.91
2022-12-14T12:22:50.549Z,2.52
2022-12-14T12:28:00.830Z,4.94
2022-12-14T12:33:11.247Z,3.90
2022-12-14T12:38:19.613Z,2.12
2022-12-14T12:43:27.783Z,1.75
2022-12-14T12:48:34.032Z,0.98
2022-12-14T12:53:41.033Z,0.80
2022-12-14T12:58:52.315Z,0.63
2022-12-14T13:03:57.850Z,0.58
2022-12-14T13:09:03.342Z,0.59
2022-12-14T13:14:17.356Z,0.68
2022-12-14T13:19:49.638Z,0.61
2022-12-14T13:24:51.882Z,0.60
2022-12-14T13:30:12.294Z,0.78
2022-12-14T13:35:37.923Z,0.44
2022-12-14T13:40:58.582Z,0.48
2022-12-14T13:46:08.486Z,0.58
2022-12-14T13:51:23.905Z,0.62
2022-12-14T13:56:33.317Z,0.66
2022-12-14T14:01:59.683Z,0.51
2022-12-14T14:07:37.658Z,0.49
2022-12-14T14:12:43.840Z,0.31
2022-12-14T14:17:49.323Z,0.21
2022-12-14T14:23:25.671Z,0.40
2022-12-14T14:28:30.581Z,0.34
2022-12-14T14:33:48.096Z,0.22
2022-12-14T14:38:51.980Z,-0.08
2022-12-14T14:43:56.989Z,-0.35
2022-12-14T14:49:01.458Z,-0.36
2022-12-14T14:59:55.801Z,-0.47
2022-12-14T15:05:32.866Z,-0.60
2022-12-14T15:10:29.167Z,-0.81
2022-12-14T15:15:37.234Z,-0.84
2022-12-14T15:20:41.775Z,-0.86
2022-12-14T15:25:44.656Z,-1.06
2022-12-14T15:30:48.980Z,-1.06
2022-12-14T15:35:53.197Z,-1.19
2022-12-14T15:40:57.831Z,-1.24
2022-12-14T15:46:05.027Z,-1.24
2022-12-14T15:51:13.258Z,-1.35
2022-12-14T15:56:20.234Z,-1.45
2022-12-14T16:01:24.963Z,-1.58
2022-12-14T16:06:32.834Z,-1.74
2022-12-14T16:11:38.523Z,-1.75
2022-12-14T16:16:41.665Z,-1.99
2022-12-14T16:21:49.672Z,-1.79
2022-12-14T16:26:57.878Z,-1.74
2022-12-14T16:32:02.047Z,-1.75
2022-12-14T16:42:33.058Z,-1.84
2022-12-14T16:48:02.909Z,-1.92
2022-12-14T16:53:16.652Z,-2.08
2022-12-14T16:58:19.555Z,-2.04
2022-12-14T17:03:24.472Z,-2.17
2022-12-14T17:08:28.935Z,-2.18
2022-12-14T17:13:31.960Z,-2.06
2022-12-14T17:18:38.170Z,-2.18
2022-12-14T17:23:44.303Z,-2.00
2022-12-14T17:28:47.217Z,-2.04
2022-12-14T17:33:51.097Z,-2.08
2022-12-14T17:38:55.230Z,-2.16
2022-12-14T17:43:58.379Z,-2.12
2022-12-14T17:49:06.145Z,-2.13
2022-12-14T17:54:15.770Z,-2.02
2022-12-14T17:59:18.647Z,-1.85
2022-12-14T18:04:21.409Z,-1.75
2022-12-14T18:09:25.560Z,-1.76
2022-12-14T18:14:28.395Z,-1.68
2022-12-14T18:19:31.201Z,-1.66
2022-12-14T18:24:35.500Z,-1.38
2022-12-14T18:29:38.917Z,-1.23
2022-12-14T18:34:41.777Z,-1.22
2022-12-14T18:39:46.250Z,-1.09
2022-12-14T18:44:52.425Z,-0.64
2022-12-14T18:49:56.405Z,-0.47
2022-12-14T18:55:00.634Z,-0.52
2022-12-14T19:00:04.627Z,-0.49
2022-12-14T19:05:08.385Z,-0.25
2022-12-14T19:10:17.168Z,-0.37
2022-12-14T19:15:23.186Z,-0.50
2022-12-14T19:20:26.974Z,-0.65
2022-12-14T19:25:31.574Z,-0.77
2022-12-14T19:30:34.895Z,-0.72
2022-12-14T19:35:40.654Z,-0.63
2022-12-14T19:40:46.507Z,-0.61
2022-12-14T19:45:49.559Z,-0.59
2022-12-14T19:50:52.567Z,-0.47
2022-12-14T19:55:57.929Z,-0.40
2022-12-14T20:01:00.836Z,-0.36
2022-12-14T20:06:05.100Z,-0.41
2022-12-14T20:11:10.682Z,-0.43
2022-12-14T20:16:16.734Z,-0.40
2022-12-14T20:21:22.429Z,-0.60
2022-12-14T20:26:27.014Z,-0.69
2022-12-14T20:31:29.858Z,-0.61
2022-12-14T20:36:32.849Z,-0.65
2022-12-14T20:41:37.212Z,-0.70
2022-12-14T20:46:42.215Z,-0.99
2022-12-14T20:51:46.115Z,-1.08
2022-12-14T20:56:50.515Z,-1.06
2022-12-14T21:01:56.258Z,-1.07
2022-12-14T21:06:59.649Z,-0.87
2022-12-14T21:12:22.063Z,-0.76
2022-12-14T21:17:26.590Z,-0.46
2022-12-14T21:22:30.436Z,-0.09
2022-12-14T21:27:38.960Z,0.20
2022-12-14T21:32:41.855Z,0.29
2022-12-14T21:37:44.793Z,-0.02
2022-12-14T21:42:51.643Z,-0.20
2022-12-14T21:47:54.523Z,-0.54
2022-12-14T21:52:57.645Z,-0.53
2022-12-14T21:58:26.907Z,-0.62
2022-12-14T22:03:30.470Z,-0.60
2022-12-14T22:08:33.851Z,-0.34
2022-12-14T22:13:38.096Z,-0.01
2022-12-14T22:18:41.130Z,0.26
2022-12-14T22:23:44.393Z,0.00
2022-12-14T22:28:50.687Z,-0.14
2022-12-14T22:33:55.160Z,-0.24
2022-12-14T22:38:58.426Z,-0.30
2022-12-14T22:44:02.678Z,-0.36
2022-12-14T22:49:05.866Z,-0.42
2022-12-14T22:54:08.978Z,-0.44
2022-12-14T22:59:15.874Z,-0.50
2022-12-14T23:04:19.048Z,-0.45
2022-12-14T23:09:39.554Z,-0.44
2022-12-14T23:15:01.374Z,-0.52
2022-12-14T23:20:22.726Z,-0.56
2022-12-14T23:25:43.312Z,-0.62
2022-12-14T23:31:05.387Z,-0.69
2022-12-14T23:36:26.823Z,-0.70
2022-12-14T23:41:48.625Z,-0.68
2022-12-14T23:47:11.957Z,-0.70
2022-12-14T23:52:32.467Z,-0.70
2022-12-14T23:57:53.329Z,-0.40
